Aeroporto :
LOGIN :

Iscrizione | Disclaimer

   EN    FR    IT 

 










Sommario :    VFR   VFR Marginale   IFR   IFR Intensivo   IFR Molto Intensivo
Visibilità : 
Base nubi : 
>= 8 km
>= 3000ft
5 / 8 km
1000 / 3000 ft
1500m / 5 km
500 / 1000 ft
800 / 1500m
200 / 500 ft
< 800m
< 200 ft
Simboli :   Temporali  Nebbia  Neve Forte  Precipitazioni Forti  Vento > 20 kt
SIGMETs :   Varie  Temporali  Ghiacco  Turbolenza  Onda orograficha  Ceneri Vulcaniche







- Altitudine del aeroporto : 499 ft
- Codice IATA : TLS
- Carte del aeroporto


LFBO - Toulouse / Blagnac

ULTIMO METAR :
  • 241730Z AUTO 29008KT 9999 -RA FEW014/// SCT056/// BKN066/// ///TCU 16/14 Q1017 TEMPO 4000 RA BKN005 SCT015TCU

METARs OBSOLETI :
  • 241700Z AUTO 29008KT 9999 -RADZ FEW015/// SCT047/// BKN056/// ///TCU 16/14 Q1017 TEMPO 4000 RA OVC005
  • 241630Z AUTO 28010KT 9999 FEW014/// SCT072/// BKN084/// ///CB 17/14 Q1017 TEMPO 4000 RA OVC005
  • 241600Z AUTO 29012KT 9999 SCT017/// BKN025/// BKN047/// ///TCU 17/13 Q1017 TEMPO 4000 RA OVC005
  • 241530Z AUTO 27011KT 9999 BKN019/// BKN029/// BKN037/// ///TCU 17/14 Q1017 TEMPO 4000 RA OVC005
  • 241500Z AUTO 32011KT 9999 BKN018/// BKN028/// BKN034/// ///TCU 18/15 Q1017 TEMPO 4000 RA OVC005

TAF TAF LFBO
Valido dal 24 a 18 ore il 26 a 00 ore UTC


241700Z 2418/2524 29009KT 9999 SCT015 BKN048
TEMPO 2418/2506 4000 RA BKN005 SCT015TCU
BECMG 2510/2512 BKN020
TEMPO 2514/2520 SCT025TCU
PROB40
TEMPO 2518/2520 -SHRA
BECMG 2520/2522 27015G25KT
ATIS : +33 5 62 74 66 36
Nessun NOTAM noto per questo aeroporto.



MetMap, La meteo Aeronautica in un colpo d'occhio ! - Copyright ORBIFLY Dicembre 2007 - Disclaimer

ORBIFLY MET'MAP TEAM :

Programmazione e sviluppo : Alexandra Zaïnal
Concezione e sviluppo : Baudouin d'Aumeries
Co-Programmazione e sviluppo : Marc-Olivier Méhu
Supporto tecnico e logistico : Manuel Goepfert
Aiuto per la traduzione : Arnaldo La Scala

Contatto : metmap@orbifly.com




FONTI E CREDITI :

   NOAA